createdAt,value
2023-05-03T00:01:59.353Z,1.20
2023-05-03T00:04:28.692Z,1.30
2023-05-03T00:06:56.645Z,1.10
2023-05-03T00:09:24.557Z,1.57
2023-05-03T00:11:53.452Z,1.33
2023-05-03T00:14:21.486Z,1.13
2023-05-03T00:16:49.441Z,1.10
2023-05-03T00:19:30.491Z,1.10
2023-05-03T00:22:01.058Z,1.13
2023-05-03T00:24:28.955Z,1.10
2023-05-03T00:26:56.849Z,1.20
2023-05-03T00:29:24.811Z,1.20
2023-05-03T00:31:52.687Z,1.07
2023-05-03T00:34:20.903Z,0.90
2023-05-03T00:36:48.789Z,1.47
2023-05-03T00:39:18.167Z,1.20
2023-05-03T00:41:46.070Z,1.40
2023-05-03T00:44:13.963Z,1.20
2023-05-03T00:46:41.963Z,1.13
2023-05-03T00:49:10.484Z,1.20
2023-05-03T00:51:38.462Z,1.20
2023-05-03T00:54:06.428Z,1.10
2023-05-03T00:56:47.834Z,1.23
2023-05-03T00:59:19.709Z,0.93
2023-05-03T01:01:49.696Z,1.20
2023-05-03T01:04:18.522Z,1.20
2023-05-03T01:06:52.569Z,0.90
2023-05-03T01:09:24.459Z,1.30
2023-05-03T01:12:02.924Z,1.33
2023-05-03T01:14:37.856Z,1.00
2023-05-03T01:17:10.437Z,1.50
2023-05-03T01:19:41.276Z,1.70
2023-05-03T01:22:17.356Z,1.20
2023-05-03T01:24:47.503Z,1.40
2023-05-03T01:27:16.749Z,1.17
2023-05-03T01:29:44.915Z,1.00
2023-05-03T01:32:17.037Z,1.07
2023-05-03T01:34:51.617Z,1.10
2023-05-03T01:37:19.755Z,1.33
2023-05-03T01:39:51.874Z,1.50
2023-05-03T01:42:21.994Z,1.33
2023-05-03T01:44:51.002Z,1.27
2023-05-03T01:47:18.944Z,0.90
2023-05-03T01:49:46.825Z,1.10
2023-05-03T01:52:14.940Z,1.30
2023-05-03T01:54:42.838Z,1.10
2023-05-03T01:57:10.776Z,1.30
2023-05-03T01:59:40.111Z,1.40
2023-05-03T02:02:08.023Z,1.20
2023-05-03T02:04:35.997Z,1.33
2023-05-03T02:07:03.972Z,1.20
2023-05-03T02:09:31.873Z,1.23
2023-05-03T02:11:59.774Z,1.10
2023-05-03T02:14:27.740Z,0.90
2023-05-03T02:16:57.078Z,1.30
2023-05-03T02:19:25.110Z,1.10
2023-05-03T02:21:53.014Z,1.20
2023-05-03T02:24:21.190Z,1.40
2023-05-03T02:26:49.073Z,0.90
2023-05-03T02:29:17.108Z,1.17
2023-05-03T02:31:44.989Z,1.50
2023-05-03T02:34:14.345Z,1.30
2023-05-03T02:36:42.231Z,1.63
2023-05-03T02:39:10.733Z,2.73
2023-05-03T02:41:38.653Z,1.77
2023-05-03T02:44:06.575Z,1.17
2023-05-03T02:46:34.488Z,2.20
2023-05-03T02:49:02.475Z,1.00
2023-05-03T02:51:32.533Z,1.60
2023-05-03T02:54:00.574Z,1.50
2023-05-03T02:56:28.551Z,1.17
2023-05-03T02:58:56.462Z,1.17
2023-05-03T03:01:24.566Z,1.30
2023-05-03T03:03:52.687Z,1.40
2023-05-03T03:06:21.034Z,1.20
2023-05-03T03:08:50.368Z,1.70
2023-05-03T03:11:18.771Z,1.70
2023-05-03T03:13:46.647Z,1.23
2023-05-03T03:16:14.631Z,1.60
2023-05-03T03:18:42.534Z,1.90
2023-05-03T03:21:10.477Z,1.53
2023-05-03T03:23:38.373Z,1.37
2023-05-03T03:26:07.709Z,1.03
2023-05-03T03:28:35.583Z,1.70
2023-05-03T03:31:03.543Z,1.70
2023-05-03T03:33:31.420Z,1.70
2023-05-03T03:35:59.319Z,1.10
2023-05-03T03:38:27.599Z,1.87
2023-05-03T03:40:55.556Z,1.40
2023-05-03T03:43:24.926Z,1.30
2023-05-03T03:45:52.844Z,1.63
2023-05-03T03:48:20.858Z,1.60
2023-05-03T03:50:48.897Z,1.63
2023-05-03T03:53:16.792Z,1.13
2023-05-03T03:55:44.746Z,1.90
2023-05-03T03:58:12.720Z,2.10
2023-05-03T04:00:42.808Z,1.80
2023-05-03T04:03:11.135Z,1.33
2023-05-03T04:05:39.101Z,1.10
2023-05-03T04:08:07.290Z,1.07
2023-05-03T04:10:35.257Z,1.70
2023-05-03T04:13:03.215Z,2.10
2023-05-03T04:15:31.115Z,1.23
2023-05-03T04:18:00.586Z,1.00
2023-05-03T04:20:29.389Z,1.50
2023-05-03T04:22:57.302Z,1.53
2023-05-03T04:25:25.708Z,1.63
2023-05-03T04:27:53.805Z,1.93
2023-05-03T04:30:22.056Z,1.50
2023-05-03T04:32:49.973Z,1.10
2023-05-03T04:35:20.057Z,2.20
2023-05-03T04:37:48.052Z,1.90
2023-05-03T04:40:17.299Z,1.50
2023-05-03T04:42:45.452Z,1.50
2023-05-03T04:45:14.575Z,2.10
2023-05-03T04:47:43.269Z,2.00
2023-05-03T04:50:12.350Z,1.90
2023-05-03T04:52:41.751Z,1.70
2023-05-03T04:55:10.650Z,2.13
2023-05-03T04:57:38.513Z,2.00
2023-05-03T05:00:11.301Z,1.53
2023-05-03T05:02:39.341Z,2.00
2023-05-03T05:05:09.124Z,1.40
2023-05-03T05:07:37.031Z,2.03
2023-05-03T05:10:07.506Z,3.07
2023-05-03T05:12:35.448Z,2.40
2023-05-03T05:15:04.297Z,2.00
2023-05-03T05:17:32.300Z,2.00
2023-05-03T05:20:00.633Z,1.90
2023-05-03T05:22:28.731Z,2.03
2023-05-03T05:24:57.093Z,1.90
2023-05-03T05:27:27.072Z,1.87
2023-05-03T05:29:55.010Z,2.00
2023-05-03T05:32:23.121Z,1.77
2023-05-03T05:34:55.247Z,1.40
2023-05-03T05:37:23.376Z,1.67
2023-05-03T05:39:51.368Z,2.23
2023-05-03T05:42:19.311Z,2.07
2023-05-03T05:44:48.582Z,1.97
2023-05-03T05:47:16.679Z,1.40
2023-05-03T05:49:44.876Z,1.80
2023-05-03T05:52:12.848Z,1.67
2023-05-03T05:54:40.742Z,1.50
2023-05-03T05:57:08.864Z,1.67
2023-05-03T05:59:36.751Z,1.30
2023-05-03T06:02:06.144Z,1.80
2023-05-03T06:04:34.097Z,1.90
2023-05-03T06:07:01.994Z,1.43
2023-05-03T06:09:29.857Z,1.70
2023-05-03T06:11:57.756Z,1.43
2023-05-03T06:14:25.744Z,1.60
2023-05-03T06:16:54.129Z,1.73
2023-05-03T06:19:24.531Z,1.53
2023-05-03T06:21:52.429Z,1.80
2023-05-03T06:24:21.521Z,1.40
2023-05-03T06:26:49.708Z,1.20
2023-05-03T06:29:18.280Z,1.43
2023-05-03T06:31:46.529Z,1.50
2023-05-03T06:34:14.471Z,1.23
2023-05-03T06:36:43.716Z,1.60
2023-05-03T06:39:11.662Z,1.50
2023-05-03T06:41:39.568Z,1.10
2023-05-03T06:44:08.200Z,1.20
2023-05-03T06:46:36.207Z,1.37
2023-05-03T06:49:04.259Z,1.00
2023-05-03T06:51:33.187Z,1.43
2023-05-03T06:54:07.074Z,1.03
2023-05-03T06:56:35.255Z,2.00
2023-05-03T06:59:03.587Z,1.30
2023-05-03T07:01:32.139Z,0.97
2023-05-03T07:04:00.534Z,1.40
2023-05-03T07:06:28.533Z,1.10
2023-05-03T07:08:56.432Z,1.10
2023-05-03T07:11:25.821Z,1.23
2023-05-03T07:13:54.051Z,1.10
2023-05-03T07:16:22.114Z,0.93
2023-05-03T07:18:50.483Z,0.90
2023-05-03T07:21:18.412Z,0.90
2023-05-03T07:23:46.326Z,1.03
2023-05-03T07:26:14.287Z,1.30
2023-05-03T07:28:43.646Z,1.40
2023-05-03T07:31:12.171Z,1.57
2023-05-03T07:33:40.450Z,1.30
2023-05-03T07:36:08.846Z,1.30
2023-05-03T07:38:37.342Z,0.97
2023-05-03T07:41:05.331Z,1.20
2023-05-03T07:43:33.248Z,1.13
2023-05-03T07:46:02.639Z,1.33
2023-05-03T07:48:30.872Z,1.53
2023-05-03T07:50:58.848Z,1.23
2023-05-03T07:53:26.804Z,1.03
2023-05-03T07:55:56.819Z,1.07
2023-05-03T07:58:38.882Z,1.03
2023-05-03T08:01:09.640Z,1.20
2023-05-03T08:03:37.670Z,1.00
2023-05-03T08:06:06.004Z,1.00
2023-05-03T08:08:34.012Z,1.27
2023-05-03T08:11:01.923Z,1.10
2023-05-03T08:13:29.829Z,1.10
2023-05-03T08:15:57.904Z,1.00
2023-05-03T08:18:27.613Z,1.23
2023-05-03T08:20:55.787Z,1.13
2023-05-03T08:23:23.894Z,1.23
2023-05-03T08:25:52.178Z,0.87
2023-05-03T08:28:20.106Z,1.00
2023-05-03T08:30:48.236Z,1.17
2023-05-03T08:33:16.161Z,1.23
2023-05-03T08:35:46.843Z,1.03
2023-05-03T08:38:16.426Z,1.00
2023-05-03T08:40:44.990Z,1.10
2023-05-03T08:43:14.657Z,1.30
2023-05-03T08:45:42.678Z,1.30
2023-05-03T08:48:10.702Z,1.10
2023-05-03T08:50:42.401Z,1.40
2023-05-03T08:53:12.035Z,1.47
2023-05-03T08:55:40.355Z,1.20
2023-05-03T08:58:10.500Z,1.20
2023-05-03T09:00:38.509Z,1.07
2023-05-03T09:03:06.507Z,1.40
2023-05-03T09:05:35.888Z,1.13
2023-05-03T09:08:04.952Z,1.30
2023-05-03T09:10:34.863Z,1.10
2023-05-03T09:13:03.738Z,1.20
2023-05-03T09:15:32.073Z,1.07
2023-05-03T09:18:10.726Z,1.20
2023-05-03T09:20:40.269Z,1.10
2023-05-03T09:23:08.884Z,1.00
2023-05-03T09:25:48.156Z,1.00
2023-05-03T09:28:17.103Z,1.00
2023-05-03T09:30:45.626Z,1.00
2023-05-03T09:33:19.298Z,0.93
2023-05-03T09:35:57.550Z,0.90
2023-05-03T09:38:28.144Z,1.30
2023-05-03T09:40:57.648Z,1.50
2023-05-03T09:43:25.568Z,1.00
2023-05-03T09:45:53.559Z,1.17
2023-05-03T09:48:23.655Z,1.23
2023-05-03T09:50:52.402Z,1.13
2023-05-03T09:53:21.464Z,1.40
2023-05-03T09:55:51.052Z,1.10
2023-05-03T09:58:21.811Z,0.97
2023-05-03T10:00:52.596Z,0.93
2023-05-03T10:03:25.695Z,1.10
2023-05-03T10:05:54.336Z,1.90
2023-05-03T10:08:27.324Z,1.60
2023-05-03T10:10:55.367Z,1.60
2023-05-03T10:13:24.801Z,1.67
2023-05-03T10:15:55.732Z,2.20
2023-05-03T10:18:25.221Z,2.03
2023-05-03T10:20:58.323Z,1.30
2023-05-03T10:23:27.280Z,1.10
2023-05-03T10:26:17.199Z,1.50
2023-05-03T10:28:47.112Z,1.50
2023-05-03T10:31:47.044Z,1.70
2023-05-03T10:34:22.200Z,1.20
2023-05-03T10:36:52.630Z,1.40
2023-05-03T10:39:20.994Z,1.60
2023-05-03T10:41:59.668Z,1.30
2023-05-03T10:44:30.738Z,1.30
2023-05-03T10:46:58.772Z,1.43
2023-05-03T10:49:27.534Z,1.40
2023-05-03T10:51:55.708Z,1.60
2023-05-03T10:54:24.280Z,1.37
2023-05-03T10:56:57.205Z,1.30
2023-05-03T10:59:26.106Z,1.33
2023-05-03T11:01:56.938Z,1.60
2023-05-03T11:04:35.219Z,1.50
2023-05-03T11:07:04.762Z,1.50
2023-05-03T11:09:34.221Z,1.10
2023-05-03T11:12:06.875Z,1.20
2023-05-03T11:14:34.918Z,1.20
2023-05-03T11:17:04.708Z,1.20
2023-05-03T11:19:32.866Z,1.60
2023-05-03T11:22:00.777Z,1.00
2023-05-03T11:24:29.449Z,1.40
2023-05-03T11:26:57.810Z,1.47
2023-05-03T11:29:26.480Z,1.50
2023-05-03T11:31:54.782Z,1.50
2023-05-03T11:34:24.381Z,1.10
2023-05-03T11:36:52.681Z,1.50
2023-05-03T11:39:21.685Z,1.10
2023-05-03T11:42:04.897Z,1.13
2023-05-03T11:44:32.993Z,1.83
2023-05-03T11:47:01.640Z,1.40
2023-05-03T11:49:31.609Z,1.50
2023-05-03T11:51:59.603Z,1.20
2023-05-03T11:54:28.411Z,1.43
2023-05-03T11:57:00.185Z,1.43
2023-05-03T11:59:38.676Z,1.30
2023-05-03T12:02:09.526Z,1.70
2023-05-03T12:04:42.912Z,1.60
2023-05-03T12:07:14.684Z,1.60
2023-05-03T12:09:55.299Z,1.30
2023-05-03T12:12:32.469Z,1.20
2023-05-03T12:15:07.803Z,1.77
2023-05-03T12:17:38.713Z,1.70
2023-05-03T12:21:26.289Z,1.30
2023-05-03T12:23:15.553Z,1.23
2023-05-03T12:25:44.637Z,1.50
2023-05-03T12:28:20.181Z,1.57
2023-05-03T12:30:48.816Z,1.23
2023-05-03T12:33:21.934Z,1.60
2023-05-03T12:35:54.249Z,1.63
2023-05-03T12:38:24.467Z,1.23
2023-05-03T12:40:53.676Z,1.50
2023-05-03T12:43:21.946Z,1.47
2023-05-03T12:45:55.856Z,1.60
2023-05-03T12:48:37.951Z,1.30
2023-05-03T12:51:19.192Z,1.73
2023-05-03T12:53:54.145Z,1.33
2023-05-03T12:56:24.896Z,1.50
2023-05-03T12:59:15.049Z,1.63
2023-05-03T13:06:47.017Z,1.07
2023-05-03T13:09:20.455Z,1.10
2023-05-03T13:11:50.008Z,1.73
2023-05-03T13:14:18.274Z,1.43
2023-05-03T13:16:46.763Z,1.57
2023-05-03T13:19:14.987Z,1.60
2023-05-03T13:21:43.211Z,1.37
2023-05-03T13:24:12.493Z,1.43
2023-05-03T13:26:40.548Z,1.40
2023-05-03T13:29:08.445Z,1.20
2023-05-03T13:31:36.425Z,1.70
2023-05-03T13:34:04.308Z,1.40
2023-05-03T13:36:33.426Z,1.50
2023-05-03T13:39:02.001Z,1.93
2023-05-03T13:41:31.565Z,1.07
2023-05-03T13:43:59.485Z,1.20
2023-05-03T13:46:27.529Z,1.20
2023-05-03T13:48:56.512Z,0.97
2023-05-03T13:51:25.677Z,1.10
2023-05-03T13:53:53.578Z,1.40
2023-05-03T13:56:21.678Z,1.40
2023-05-03T13:58:50.994Z,1.10
2023-05-03T14:01:19.271Z,1.63
2023-05-03T14:03:47.357Z,0.90
2023-05-03T14:06:15.391Z,1.40
2023-05-03T14:08:43.277Z,1.30
2023-05-03T14:11:14.463Z,1.30
2023-05-03T14:13:55.678Z,1.00
2023-05-03T14:16:39.966Z,1.43
2023-05-03T14:19:10.557Z,1.10
2023-05-03T14:21:38.864Z,1.20
2023-05-03T14:24:07.570Z,1.07
2023-05-03T14:26:35.471Z,1.50
2023-05-03T14:29:04.234Z,1.80
2023-05-03T14:31:34.258Z,1.83
2023-05-03T14:34:02.302Z,1.40
2023-05-03T14:36:34.907Z,1.60
2023-05-03T14:39:03.146Z,1.10
2023-05-03T14:41:32.085Z,1.30
2023-05-03T14:44:00.005Z,1.20
2023-05-03T14:46:27.974Z,2.00
2023-05-03T14:48:57.393Z,1.53
2023-05-03T14:51:25.410Z,1.77
2023-05-03T14:53:53.315Z,1.30
2023-05-03T14:56:21.236Z,1.80
2023-05-03T14:58:49.121Z,1.40
2023-05-03T15:01:20.587Z,1.70
2023-05-03T15:03:48.636Z,2.00
2023-05-03T15:06:24.027Z,2.30
2023-05-03T15:08:52.378Z,1.73
2023-05-03T15:11:20.302Z,1.80
2023-05-03T15:13:48.404Z,1.60
2023-05-03T15:16:16.518Z,1.73
2023-05-03T15:18:48.182Z,1.40
2023-05-03T15:21:21.217Z,1.10
2023-05-03T15:23:49.581Z,2.20
2023-05-03T15:26:17.732Z,1.70
2023-05-03T15:28:45.743Z,1.50
2023-05-03T15:31:14.170Z,1.50
2023-05-03T15:33:43.134Z,1.90
2023-05-03T15:36:12.022Z,1.23
2023-05-03T15:38:41.912Z,1.57
2023-05-03T15:41:09.816Z,1.60
2023-05-03T15:44:24.626Z,1.53
2023-05-03T15:46:52.552Z,1.63
2023-05-03T15:49:20.509Z,2.00
2023-05-03T15:51:48.404Z,1.90
2023-05-03T15:54:17.690Z,1.90
2023-05-03T15:56:53.995Z,1.70
2023-05-03T15:59:21.892Z,1.60
2023-05-03T16:01:49.914Z,1.90
2023-05-03T16:04:17.898Z,1.60
2023-05-03T16:06:45.815Z,1.80
2023-05-03T16:09:14.458Z,1.93
2023-05-03T16:11:43.761Z,1.63
2023-05-03T16:14:12.125Z,1.77
2023-05-03T16:16:40.363Z,1.60
2023-05-03T16:19:08.875Z,1.20
2023-05-03T16:21:36.848Z,1.20
2023-05-03T16:24:05.300Z,1.73
2023-05-03T16:26:34.587Z,1.53
2023-05-03T16:29:03.900Z,1.67
2023-05-03T16:31:32.230Z,1.50
2023-05-03T16:34:00.370Z,1.63
2023-05-03T16:36:28.281Z,1.67
2023-05-03T16:38:56.231Z,1.30
2023-05-03T16:41:24.629Z,1.53
2023-05-03T16:43:52.919Z,1.60
2023-05-03T16:46:22.927Z,1.20
2023-05-03T16:48:51.904Z,1.50
2023-05-03T16:51:21.797Z,1.53
2023-05-03T16:53:49.694Z,1.53
2023-05-03T16:56:17.575Z,1.67
2023-05-03T16:58:45.786Z,1.40
2023-05-03T17:01:15.444Z,1.23
2023-05-03T17:03:44.846Z,1.30
2023-05-03T17:06:13.144Z,1.20
2023-05-03T17:08:41.269Z,1.37
2023-05-03T17:11:13.963Z,1.80
2023-05-03T17:13:42.078Z,1.30
2023-05-03T17:16:11.525Z,1.63
2023-05-03T17:18:40.655Z,1.47
2023-05-03T17:21:10.320Z,1.30
2023-05-03T17:23:39.527Z,1.73
2023-05-03T17:26:09.304Z,1.30
2023-05-03T17:28:37.657Z,1.30
2023-05-03T17:31:06.452Z,1.43
2023-05-03T17:33:35.004Z,1.33
2023-05-03T17:36:04.939Z,1.50
2023-05-03T17:38:35.595Z,1.17
2023-05-03T17:41:07.417Z,1.50
2023-05-03T17:43:35.740Z,1.30
2023-05-03T17:46:08.919Z,1.33
2023-05-03T17:48:39.319Z,1.17
2023-05-03T17:51:08.225Z,1.50
2023-05-03T17:53:37.548Z,1.27
2023-05-03T17:56:05.704Z,1.37
2023-05-03T17:58:33.612Z,1.50
2023-05-03T18:01:01.513Z,1.40
2023-05-03T18:03:29.499Z,1.20
2023-05-03T18:05:57.502Z,1.63
2023-05-03T18:08:25.435Z,1.43
2023-05-03T18:10:54.743Z,1.80
2023-05-03T18:13:22.877Z,1.50
2023-05-03T18:15:51.238Z,1.80
2023-05-03T18:18:19.222Z,1.33
2023-05-03T18:20:47.121Z,2.00
2023-05-03T18:23:15.540Z,1.50
2023-05-03T18:25:46.119Z,1.47
2023-05-03T18:28:15.398Z,1.60
2023-05-03T18:30:43.528Z,2.07
2023-05-03T18:33:12.075Z,1.33
2023-05-03T18:35:40.262Z,2.10
2023-05-03T18:38:08.218Z,1.70
2023-05-03T18:40:36.140Z,2.13
2023-05-03T18:43:04.200Z,1.80
2023-05-03T18:45:33.476Z,1.87
2023-05-03T18:48:01.407Z,1.93
2023-05-03T18:50:29.334Z,1.90
2023-05-03T18:52:57.207Z,1.90
2023-05-03T18:55:25.520Z,2.10
2023-05-03T18:57:53.400Z,2.20
2023-05-03T19:00:21.720Z,1.67
2023-05-03T19:02:51.064Z,2.00
2023-05-03T19:05:19.186Z,1.70
2023-05-03T19:07:47.793Z,2.27
2023-05-03T19:10:54.064Z,1.90
2023-05-03T19:13:22.055Z,2.00
2023-05-03T19:15:50.094Z,1.90
2023-05-03T19:18:19.363Z,2.33
2023-05-03T19:20:47.263Z,2.23
2023-05-03T19:23:15.196Z,2.20
2023-05-03T19:25:43.200Z,2.87
2023-05-03T19:28:11.806Z,2.27
2023-05-03T19:30:41.424Z,1.80
2023-05-03T19:33:09.410Z,2.37
2023-05-03T19:35:40.608Z,1.80
2023-05-03T19:38:08.670Z,2.27
2023-05-03T19:40:36.963Z,2.20
2023-05-03T19:43:04.851Z,2.00
2023-05-03T19:45:32.813Z,2.60
2023-05-03T19:48:00.895Z,2.40
2023-05-03T19:50:28.974Z,2.10
2023-05-03T19:52:58.265Z,2.30
2023-05-03T19:55:26.164Z,2.10
2023-05-03T19:57:54.257Z,3.10
2023-05-03T20:00:24.330Z,2.40
2023-05-03T20:02:52.274Z,2.50
2023-05-03T20:05:20.464Z,2.57
2023-05-03T20:07:49.154Z,2.60
2023-05-03T20:10:18.704Z,2.40
2023-05-03T20:12:46.606Z,2.57
2023-05-03T20:15:14.735Z,2.50
2023-05-03T20:17:42.690Z,2.73
2023-05-03T20:20:12.143Z,2.60
2023-05-03T20:22:40.660Z,2.70
2023-05-03T20:25:09.605Z,2.60
2023-05-03T20:27:38.912Z,2.70
2023-05-03T20:30:08.393Z,2.43
2023-05-03T20:32:37.098Z,2.73
2023-05-03T20:35:05.986Z,2.83
2023-05-03T20:37:35.377Z,2.70
2023-05-03T20:40:04.662Z,2.80
2023-05-03T20:42:32.868Z,2.57
2023-05-03T20:45:02.146Z,2.13
2023-05-03T20:47:30.036Z,2.47
2023-05-03T20:49:57.954Z,2.67
2023-05-03T20:52:25.952Z,2.50
2023-05-03T20:54:53.879Z,2.10
2023-05-03T20:57:21.784Z,2.47
2023-05-03T20:59:49.948Z,2.17
2023-05-03T21:02:19.220Z,2.47
2023-05-03T21:04:47.143Z,2.20
2023-05-03T21:07:15.036Z,2.50
2023-05-03T21:09:42.917Z,2.20
2023-05-03T21:12:10.837Z,2.17
2023-05-03T21:14:38.720Z,2.13
2023-05-03T21:17:08.850Z,2.47
2023-05-03T21:19:39.404Z,2.10
2023-05-03T21:22:08.569Z,2.23
2023-05-03T21:24:36.643Z,2.27
2023-05-03T21:27:04.602Z,2.10
2023-05-03T21:29:32.508Z,2.00
2023-05-03T21:32:00.615Z,2.20
2023-05-03T21:34:28.700Z,2.57
2023-05-03T21:36:57.952Z,2.47
2023-05-03T21:39:26.007Z,2.17
2023-05-03T21:41:54.438Z,2.10
2023-05-03T21:44:22.403Z,2.33
2023-05-03T21:46:50.408Z,2.27
2023-05-03T21:49:18.393Z,2.40
2023-05-03T21:51:46.300Z,2.10
2023-05-03T21:54:16.137Z,2.03
2023-05-03T21:56:44.087Z,2.10
2023-05-03T21:59:11.994Z,2.17
2023-05-03T22:01:40.366Z,2.23
2023-05-03T22:04:08.695Z,2.27
2023-05-03T22:06:37.867Z,2.30
2023-05-03T22:09:06.936Z,2.17
2023-05-03T22:11:36.302Z,2.40
2023-05-03T22:14:08.475Z,2.37
2023-05-03T22:16:37.461Z,2.00
2023-05-03T22:19:05.600Z,2.13
2023-05-03T22:21:33.516Z,2.40
2023-05-03T22:24:01.480Z,2.20
2023-05-03T22:26:29.737Z,1.77
2023-05-03T22:28:59.044Z,2.27
2023-05-03T22:31:27.550Z,2.37
2023-05-03T22:33:55.474Z,1.80
2023-05-03T22:36:23.475Z,2.30
2023-05-03T22:38:55.083Z,2.30
2023-05-03T22:41:23.141Z,2.13
2023-05-03T22:43:51.037Z,2.40
2023-05-03T22:46:20.673Z,2.00
2023-05-03T22:48:48.658Z,2.10
2023-05-03T22:51:16.724Z,2.40
2023-05-03T22:53:44.707Z,2.53
2023-05-03T22:56:13.386Z,1.90
2023-05-03T22:58:41.263Z,2.53
2023-05-03T23:01:11.589Z,2.33
2023-05-03T23:03:41.589Z,2.43
2023-05-03T23:06:09.599Z,2.57
2023-05-03T23:08:37.610Z,2.80
2023-05-03T23:11:05.785Z,2.07
2023-05-03T23:13:33.674Z,1.97
2023-05-03T23:16:02.444Z,2.10
2023-05-03T23:18:30.387Z,1.87
2023-05-03T23:20:59.923Z,2.20
2023-05-03T23:23:27.980Z,2.13
2023-05-03T23:25:56.006Z,1.90
2023-05-03T23:28:24.216Z,2.17
2023-05-03T23:30:52.466Z,2.03
2023-05-03T23:33:20.953Z,2.23
2023-05-03T23:35:50.066Z,2.20
2023-05-03T23:38:19.484Z,2.20
2023-05-03T23:40:47.458Z,1.87
2023-05-03T23:43:15.405Z,2.30
2023-05-03T23:45:43.427Z,1.77
2023-05-03T23:48:11.367Z,2.43
2023-05-03T23:50:39.312Z,2.30
2023-05-03T23:53:07.384Z,2.23
2023-05-03T23:55:36.714Z,2.33
2023-05-03T23:58:04.807Z,1.87
